sensor_id;sensor_type;location;lat;lon;timestamp;pressure;altitude;pressure_sealevel;temperature;humidity
52249;BME280;38541;48.130;8.378;2024-02-16T00:00:33;92646.34;;;8.21;69.33
52249;BME280;38541;48.130;8.378;2024-02-16T00:03:00;92640.84;;;8.22;69.13
52249;BME280;38541;48.130;8.378;2024-02-16T00:05:27;92642.38;;;8.13;69.22
52249;BME280;38541;48.130;8.378;2024-02-16T00:07:53;92636.59;;;8.11;69.13
52249;BME280;38541;48.130;8.378;2024-02-16T00:10:20;92644.44;;;8.11;69.06
52249;BME280;38541;48.130;8.378;2024-02-16T00:12:48;92643.38;;;8.07;69.02
52249;BME280;38541;48.130;8.378;2024-02-16T00:15:14;92639.72;;;8.08;69.36
52249;BME280;38541;48.130;8.378;2024-02-16T00:17:41;92646.75;;;8.07;68.93
52249;BME280;38541;48.130;8.378;2024-02-16T00:20:07;92649.38;;;8.07;69.24
52249;BME280;38541;48.130;8.378;2024-02-16T00:22:34;92647.03;;;8.06;69.07
52249;BME280;38541;48.130;8.378;2024-02-16T00:25:01;92644.41;;;8.06;69.50
52249;BME280;38541;48.130;8.378;2024-02-16T00:27:28;92647.03;;;8.06;69.46
52249;BME280;38541;48.130;8.378;2024-02-16T00:29:54;92644.94;;;8.08;69.60
52249;BME280;38541;48.130;8.378;2024-02-16T00:32:21;92637.03;;;8.03;69.71
52249;BME280;38541;48.130;8.378;2024-02-16T00:34:50;92639.16;;;8.06;69.32
52249;BME280;38541;48.130;8.378;2024-02-16T00:37:20;92634.94;;;8.05;69.74
52249;BME280;38541;48.130;8.378;2024-02-16T00:39:47;92639.66;;;8.03;69.55
52249;BME280;38541;48.130;8.378;2024-02-16T00:42:13;92639.66;;;8.03;69.41
52249;BME280;38541;48.130;8.378;2024-02-16T00:44:40;92634.41;;;8.03;69.59
52249;BME280;38541;48.130;8.378;2024-02-16T00:47:07;92620.84;;;8.06;69.41
52249;BME280;38541;48.130;8.378;2024-02-16T00:49:33;92622.72;;;8.10;69.62
52249;BME280;38541;48.130;8.378;2024-02-16T00:52:00;92616.94;;;8.08;69.49
52249;BME280;38541;48.130;8.378;2024-02-16T00:54:28;92620.59;;;8.07;69.98
52249;BME280;38541;48.130;8.378;2024-02-16T00:56:54;92624.00;;;8.08;69.72
52249;BME280;38541;48.130;8.378;2024-02-16T00:59:21;92623.91;;;7.97;69.81
52249;BME280;38541;48.130;8.378;2024-02-16T01:01:48;92632.78;;;7.96;70.28
52249;BME280;38541;48.130;8.378;2024-02-16T01:04:14;92638.06;;;8.02;70.47
52249;BME280;38541;48.130;8.378;2024-02-16T01:06:41;92633.38;;;8.04;70.25
52249;BME280;38541;48.130;8.378;2024-02-16T01:09:07;92631.75;;;7.97;70.18
52249;BME280;38541;48.130;8.378;2024-02-16T01:11:34;92636.94;;;7.92;70.10
52249;BME280;38541;48.130;8.378;2024-02-16T01:14:00;92635.38;;;7.91;70.19
52249;BME280;38541;48.130;8.378;2024-02-16T01:16:27;92638.72;;;7.87;70.23
52249;BME280;38541;48.130;8.378;2024-02-16T01:18:54;92636.91;;;7.87;70.76
52249;BME280;38541;48.130;8.378;2024-02-16T01:21:21;92640.66;;;7.96;70.51
52249;BME280;38541;48.130;8.378;2024-02-16T01:23:47;92641.50;;;8.02;70.24
52249;BME280;38541;48.130;8.378;2024-02-16T01:26:14;92639.66;;;8.03;70.35
52249;BME280;38541;48.130;8.378;2024-02-16T01:28:41;92641.22;;;8.04;70.76
52249;BME280;38541;48.130;8.378;2024-02-16T01:31:08;92633.88;;;8.00;70.19
52249;BME280;38541;48.130;8.378;2024-02-16T01:33:38;92642.25;;;8.03;70.49
52249;BME280;38541;48.130;8.378;2024-02-16T01:36:05;92634.91;;;7.99;70.35
52249;BME280;38541;48.130;8.378;2024-02-16T01:38:32;92636.44;;;7.95;70.51
52249;BME280;38541;48.130;8.378;2024-02-16T01:40:58;92635.38;;;7.91;70.44
52249;BME280;38541;48.130;8.378;2024-02-16T01:43:25;92646.38;;;7.93;70.49
52249;BME280;38541;48.130;8.378;2024-02-16T01:45:51;92640.00;;;7.84;70.80
52249;BME280;38541;48.130;8.378;2024-02-16T01:48:18;92643.75;;;7.93;70.63
52249;BME280;38541;48.130;8.378;2024-02-16T01:50:45;92635.41;;;7.96;70.54
52249;BME280;38541;48.130;8.378;2024-02-16T01:53:12;92637.53;;;7.99;70.57
52249;BME280;38541;48.130;8.378;2024-02-16T01:55:39;92637.03;;;8.03;70.36
52249;BME280;38541;48.130;8.378;2024-02-16T01:58:05;92632.03;;;7.96;69.95
52249;BME280;38541;48.130;8.378;2024-02-16T02:00:33;92633.28;;;7.93;70.06
52249;BME280;38541;48.130;8.378;2024-02-16T02:03:00;92636.94;;;7.92;70.01
52249;BME280;38541;48.130;8.378;2024-02-16T02:05:26;92631.97;;;7.91;70.25
52249;BME280;38541;48.130;8.378;2024-02-16T02:07:53;92634.56;;;7.91;70.11
52249;BME280;38541;48.130;8.378;2024-02-16T02:10:20;92636.09;;;7.87;70.10
52249;BME280;38541;48.130;8.378;2024-02-16T02:12:46;92638.91;;;7.80;70.43
52249;BME280;38541;48.130;8.378;2024-02-16T02:15:12;92632.13;;;7.79;70.69
52249;BME280;38541;48.130;8.378;2024-02-16T02:17:39;92638.88;;;7.75;71.02
52249;BME280;38541;48.130;8.378;2024-02-16T02:20:07;92631.06;;;7.80;70.95
52249;BME280;38541;48.130;8.378;2024-02-16T02:22:38;92631.38;;;7.83;70.73
52249;BME280;38541;48.130;8.378;2024-02-16T02:25:04;92627.91;;;7.78;70.25
52249;BME280;38541;48.130;8.378;2024-02-16T02:27:31;92633.09;;;7.73;70.41
52249;BME280;38541;48.130;8.378;2024-02-16T02:29:58;92631.53;;;7.71;70.20
52249;BME280;38541;48.130;8.378;2024-02-16T02:32:25;92625.16;;;7.62;70.44
52249;BME280;38541;48.130;8.378;2024-02-16T02:34:51;92625.16;;;7.62;70.48
52249;BME280;38541;48.130;8.378;2024-02-16T02:37:17;92626.69;;;7.58;70.57
52249;BME280;38541;48.130;8.378;2024-02-16T02:39:44;92621.91;;;7.50;70.49
52249;BME280;38541;48.130;8.378;2024-02-16T02:42:10;92619.53;;;7.48;71.54
52249;BME280;38541;48.130;8.378;2024-02-16T02:44:37;92614.09;;;7.55;71.16
52249;BME280;38541;48.130;8.378;2024-02-16T02:47:04;92610.44;;;7.56;70.94
52249;BME280;38541;48.130;8.378;2024-02-16T02:49:30;92611.50;;;7.55;71.41
52249;BME280;38541;48.130;8.378;2024-02-16T02:51:57;92613.59;;;7.58;71.43
52249;BME280;38541;48.130;8.378;2024-02-16T02:54:24;92613.59;;;7.58;71.52
52249;BME280;38541;48.130;8.378;2024-02-16T02:56:50;92604.19;;;7.57;71.43
52249;BME280;38541;48.130;8.378;2024-02-16T02:59:17;92597.06;;;7.52;71.10
52249;BME280;38541;48.130;8.378;2024-02-16T03:01:43;92605.41;;;7.49;70.99
52249;BME280;38541;48.130;8.378;2024-02-16T03:04:11;92597.00;;;7.42;71.09
52249;BME280;38541;48.130;8.378;2024-02-16T03:06:38;92600.41;;;7.48;71.53
52249;BME280;38541;48.130;8.378;2024-02-16T03:09:05;92599.69;;;7.52;71.64
52249;BME280;38541;48.130;8.378;2024-02-16T03:11:31;92598.41;;;7.55;71.34
52249;BME280;38541;48.130;8.378;2024-02-16T03:13:58;92596.22;;;7.47;71.59
52249;BME280;38541;48.130;8.378;2024-02-16T03:16:24;92598.31;;;7.45;71.41
52249;BME280;38541;48.130;8.378;2024-02-16T03:18:51;92602.03;;;7.49;71.78
52249;BME280;38541;48.130;8.378;2024-02-16T03:21:17;92610.19;;;7.57;71.71
52249;BME280;38541;48.130;8.378;2024-02-16T03:23:44;92611.03;;;7.63;71.57
52249;BME280;38541;48.130;8.378;2024-02-16T03:26:15;92623.03;;;7.59;71.38
52249;BME280;38541;48.130;8.378;2024-02-16T03:28:45;92620.75;;;7.68;71.40
52249;BME280;38541;48.130;8.378;2024-02-16T03:31:22;92622.66;;;7.73;71.26
52249;BME280;38541;48.130;8.378;2024-02-16T03:33:50;92613.25;;;7.77;71.52
52249;BME280;38541;48.130;8.378;2024-02-16T03:36:18;92615.84;;;7.71;71.09
52249;BME280;38541;48.130;8.378;2024-02-16T03:38:47;92616.03;;;7.65;70.91
52249;BME280;38541;48.130;8.378;2024-02-16T03:41:21;92614.16;;;7.60;71.28
52249;BME280;38541;48.130;8.378;2024-02-16T03:43:47;92612.63;;;7.64;71.08
52249;BME280;38541;48.130;8.378;2024-02-16T03:46:14;92622.53;;;7.62;70.76
52249;BME280;38541;48.130;8.378;2024-02-16T03:48:41;92617.03;;;7.59;70.71
52249;BME280;38541;48.130;8.378;2024-02-16T03:51:08;92621.94;;;7.55;70.69
52249;BME280;38541;48.130;8.378;2024-02-16T03:53:34;92614.53;;;7.47;71.01
52249;BME280;38541;48.130;8.378;2024-02-16T03:56:01;92618.97;;;7.46;71.13
52249;BME280;38541;48.130;8.378;2024-02-16T03:58:28;92606.81;;;7.35;70.08
52249;BME280;38541;48.130;8.378;2024-02-16T04:00:54;92614.03;;;7.22;70.55
52249;BME280;38541;48.130;8.378;2024-02-16T04:03:21;92621.00;;;7.17;70.92
52249;BME280;38541;48.130;8.378;2024-02-16T04:05:47;92615.25;;;7.14;71.05
52249;BME280;38541;48.130;8.378;2024-02-16T04:08:14;92618.94;;;7.19;71.27
52249;BME280;38541;48.130;8.378;2024-02-16T04:10:41;92620.22;;;7.16;71.61
52249;BME280;38541;48.130;8.378;2024-02-16T04:13:07;92628.59;;;7.18;72.00
52249;BME280;38541;48.130;8.378;2024-02-16T04:15:34;92623.97;;;7.25;71.49
52249;BME280;38541;48.130;8.378;2024-02-16T04:18:01;92624.75;;;7.26;71.96
52249;BME280;38541;48.130;8.378;2024-02-16T04:20:28;92618.94;;;7.19;71.48
52249;BME280;38541;48.130;8.378;2024-02-16T04:22:54;92624.88;;;7.14;71.59
52249;BME280;38541;48.130;8.378;2024-02-16T04:25:21;92628.03;;;7.16;71.93
52249;BME280;38541;48.130;8.378;2024-02-16T04:27:47;92627.31;;;7.21;71.77
52249;BME280;38541;48.130;8.378;2024-02-16T04:30:14;92632.38;;;7.27;71.64
52249;BME280;38541;48.130;8.378;2024-02-16T04:32:40;92629.25;;;7.31;72.00
52249;BME280;38541;48.130;8.378;2024-02-16T04:35:07;92629.03;;;7.32;71.37
52249;BME280;38541;48.130;8.378;2024-02-16T04:37:38;92631.56;;;7.27;71.72
52249;BME280;38541;48.130;8.378;2024-02-16T04:40:06;92634.72;;;7.29;71.17
52249;BME280;38541;48.130;8.378;2024-02-16T04:42:33;92622.59;;;7.18;71.15
52249;BME280;38541;48.130;8.378;2024-02-16T04:44:59;92629.38;;;7.19;71.60
52249;BME280;38541;48.130;8.378;2024-02-16T04:47:31;92631.50;;;7.22;71.21
52249;BME280;38541;48.130;8.378;2024-02-16T04:49:58;92625.44;;;7.16;71.45
52249;BME280;38541;48.130;8.378;2024-02-16T04:52:24;92625.75;;;7.20;71.88
52249;BME280;38541;48.130;8.378;2024-02-16T04:54:56;92624.94;;;7.19;71.91
52249;BME280;38541;48.130;8.378;2024-02-16T04:57:22;92631.47;;;7.17;72.02
52249;BME280;38541;48.130;8.378;2024-02-16T04:59:49;92635.88;;;7.16;71.80
52249;BME280;38541;48.130;8.378;2024-02-16T05:02:15;92635.59;;;7.12;71.81
52249;BME280;38541;48.130;8.378;2024-02-16T05:04:42;92640.81;;;7.12;72.27
52249;BME280;38541;48.130;8.378;2024-02-16T05:07:08;92641.84;;;7.11;71.77
52249;BME280;38541;48.130;8.378;2024-02-16T05:09:36;92638.97;;;7.13;72.02
52249;BME280;38541;48.130;8.378;2024-02-16T05:12:03;92639.03;;;7.18;71.81
52249;BME280;38541;48.130;8.378;2024-02-16T05:14:29;92632.06;;;7.24;71.79
52249;BME280;38541;48.130;8.378;2024-02-16T05:16:56;92634.13;;;7.22;71.76
52249;BME280;38541;48.130;8.378;2024-02-16T05:19:25;92637.00;;;7.20;71.55
52249;BME280;38541;48.130;8.378;2024-02-16T05:21:52;92636.19;;;7.20;71.73
52249;BME280;38541;48.130;8.378;2024-02-16T05:24:18;92638.50;;;7.16;71.77
52249;BME280;38541;48.130;8.378;2024-02-16T05:26:45;92641.59;;;7.13;71.69
52249;BME280;38541;48.130;8.378;2024-02-16T05:29:11;92643.44;;;7.12;71.48
52249;BME280;38541;48.130;8.378;2024-02-16T05:31:38;92644.94;;;7.08;71.33
52249;BME280;38541;48.130;8.378;2024-02-16T05:34:05;92641.28;;;7.09;71.71
52249;BME280;38541;48.130;8.378;2024-02-16T05:36:32;92646.81;;;7.13;71.68
52249;BME280;38541;48.130;8.378;2024-02-16T05:39:02;92650.69;;;7.10;71.48
52249;BME280;38541;48.130;8.378;2024-02-16T05:41:46;92647.53;;;7.08;71.81
52249;BME280;38541;48.130;8.378;2024-02-16T05:44:13;92646.78;;;7.08;72.19
52249;BME280;38541;48.130;8.378;2024-02-16T05:46:40;92642.25;;;7.03;71.77
52249;BME280;38541;48.130;8.378;2024-02-16T05:49:06;92647.16;;;6.99;72.23
52249;BME280;38541;48.130;8.378;2024-02-16T05:51:39;92649.56;;;7.01;72.16
52249;BME280;38541;48.130;8.378;2024-02-16T05:54:07;92654.22;;;6.99;71.67
52249;BME280;38541;48.130;8.378;2024-02-16T05:56:34;92649.00;;;6.99;72.00
52249;BME280;38541;48.130;8.378;2024-02-16T05:59:03;92650.34;;;7.02;71.95
52249;BME280;38541;48.130;8.378;2024-02-16T06:01:29;92660.00;;;7.01;72.25
52249;BME280;38541;48.130;8.378;2024-02-16T06:03:56;92653.19;;;7.00;71.82
52249;BME280;38541;48.130;8.378;2024-02-16T06:06:23;92664.69;;;6.99;71.72
52249;BME280;38541;48.130;8.378;2024-02-16T06:08:49;92659.94;;;6.96;71.66
52249;BME280;38541;48.130;8.378;2024-02-16T06:11:16;92667.22;;;6.94;71.84
52249;BME280;38541;48.130;8.378;2024-02-16T06:13:43;92663.03;;;6.93;71.68
52249;BME280;38541;48.130;8.378;2024-02-16T06:16:09;92661.47;;;6.92;71.72
52249;BME280;38541;48.130;8.378;2024-02-16T06:18:36;92668.25;;;6.93;71.75
52249;BME280;38541;48.130;8.378;2024-02-16T06:21:03;92667.47;;;6.92;71.90
52249;BME280;38541;48.130;8.378;2024-02-16T06:23:30;92670.88;;;6.93;71.91
52249;BME280;38541;48.130;8.378;2024-02-16T06:25:56;92673.50;;;6.93;72.06
52249;BME280;38541;48.130;8.378;2024-02-16T06:28:23;92670.28;;;6.91;72.05
52249;BME280;38541;48.130;8.378;2024-02-16T06:30:49;92674.75;;;6.90;71.88
52249;BME280;38541;48.130;8.378;2024-02-16T06:33:16;92678.13;;;6.91;71.72
52249;BME280;38541;48.130;8.378;2024-02-16T06:35:43;92681.31;;;6.93;72.19
52249;BME280;38541;48.130;8.378;2024-02-16T06:38:09;92683.94;;;6.93;72.04
52249;BME280;38541;48.130;8.378;2024-02-16T06:40:36;92682.34;;;6.92;72.46
52249;BME280;38541;48.130;8.378;2024-02-16T06:43:02;92682.81;;;6.89;72.18
52249;BME280;38541;48.130;8.378;2024-02-16T06:45:30;92678.63;;;6.88;72.25
52249;BME280;38541;48.130;8.378;2024-02-16T06:47:57;92687.81;;;6.90;72.35
52249;BME280;38541;48.130;8.378;2024-02-16T06:50:24;92687.00;;;6.90;72.52
52249;BME280;38541;48.130;8.378;2024-02-16T06:52:51;92688.84;;;6.89;72.36
52249;BME280;38541;48.130;8.378;2024-02-16T06:55:17;92695.97;;;6.94;72.49
52249;BME280;38541;48.130;8.378;2024-02-16T06:57:45;92704.34;;;6.96;72.54
52249;BME280;38541;48.130;8.378;2024-02-16T07:00:12;92700.22;;;7.00;72.03
52249;BME280;38541;48.130;8.378;2024-02-16T07:02:39;92708.59;;;7.02;72.24
52249;BME280;38541;48.130;8.378;2024-02-16T07:05:08;92697.19;;;7.08;71.92
52249;BME280;38541;48.130;8.378;2024-02-16T07:07:34;92706.38;;;7.11;72.13
52249;BME280;38541;48.130;8.378;2024-02-16T07:10:02;92709.03;;;7.16;72.13
52249;BME280;38541;48.130;8.378;2024-02-16T07:12:28;92715.84;;;7.17;72.25
52249;BME280;38541;48.130;8.378;2024-02-16T07:14:55;92714.09;;;7.23;72.13
52249;BME280;38541;48.130;8.378;2024-02-16T07:17:21;92714.94;;;7.28;72.46
52249;BME280;38541;48.130;8.378;2024-02-16T07:19:48;92724.19;;;7.36;72.34
52249;BME280;38541;48.130;8.378;2024-02-16T07:22:14;92713.75;;;7.36;72.25
52249;BME280;38541;48.130;8.378;2024-02-16T07:24:41;92718.47;;;7.39;72.03
52249;BME280;38541;48.130;8.378;2024-02-16T07:27:08;92731.31;;;7.41;72.26
52249;BME280;38541;48.130;8.378;2024-02-16T07:29:35;92721.66;;;7.41;71.74
52249;BME280;38541;48.130;8.378;2024-02-16T07:32:02;92724.81;;;7.43;71.84
52249;BME280;38541;48.130;8.378;2024-02-16T07:34:29;92719.94;;;7.52;72.15
52249;BME280;38541;48.130;8.378;2024-02-16T07:36:56;92730.44;;;7.57;71.53
52249;BME280;38541;48.130;8.378;2024-02-16T07:39:23;92728.09;;;7.56;71.55
52249;BME280;38541;48.130;8.378;2024-02-16T07:41:51;92731.56;;;7.62;71.41
52249;BME280;38541;48.130;8.378;2024-02-16T07:44:18;92732.47;;;7.73;71.74
52249;BME280;38541;48.130;8.378;2024-02-16T07:46:44;92727.06;;;7.79;71.71
52249;BME280;38541;48.130;8.378;2024-02-16T07:49:12;92735.28;;;7.88;71.76
52249;BME280;38541;48.130;8.378;2024-02-16T07:51:40;92728.25;;;7.94;71.89
52249;BME280;38541;48.130;8.378;2024-02-16T07:54:07;92741.69;;;8.03;71.23
52249;BME280;38541;48.130;8.378;2024-02-16T07:56:34;92740.72;;;8.09;70.95
52249;BME280;38541;48.130;8.378;2024-02-16T07:59:01;92741.06;;;8.18;71.00
52249;BME280;38541;48.130;8.378;2024-02-16T08:01:27;92738.25;;;8.24;70.83
52249;BME280;38541;48.130;8.378;2024-02-16T08:03:54;92733.06;;;8.30;70.51
52249;BME280;38541;48.130;8.378;2024-02-16T08:06:25;92753.47;;;8.27;70.29
52249;BME280;38541;48.130;8.378;2024-02-16T08:08:52;92750.84;;;8.27;70.24
52249;BME280;38541;48.130;8.378;2024-02-16T08:11:18;92743.59;;;8.40;69.99
52249;BME280;38541;48.130;8.378;2024-02-16T08:13:46;92729.63;;;8.51;70.12
52249;BME280;38541;48.130;8.378;2024-02-16T08:16:12;92741.16;;;8.55;69.94
52249;BME280;38541;48.130;8.378;2024-02-16T08:18:39;92745.97;;;8.64;69.93
52249;BME280;38541;48.130;8.378;2024-02-16T08:21:06;92745.00;;;8.75;69.70
52249;BME280;38541;48.130;8.378;2024-02-16T08:23:32;92749.53;;;8.90;69.92
52249;BME280;38541;48.130;8.378;2024-02-16T08:26:00;92752.00;;;9.02;69.51
52249;BME280;38541;48.130;8.378;2024-02-16T08:28:27;92747.09;;;9.11;69.32
52249;BME280;38541;48.130;8.378;2024-02-16T08:30:53;92750.81;;;9.25;69.29
52249;BME280;38541;48.130;8.378;2024-02-16T08:33:20;92755.88;;;9.37;69.47
52249;BME280;38541;48.130;8.378;2024-02-16T08:35:46;92754.59;;;9.45;69.23
52249;BME280;38541;48.130;8.378;2024-02-16T08:38:13;92763.88;;;9.58;69.21
52249;BME280;38541;48.130;8.378;2024-02-16T08:40:39;92757.06;;;9.62;68.89
52249;BME280;38541;48.130;8.378;2024-02-16T08:43:06;92753.41;;;9.68;68.78
52249;BME280;38541;48.130;8.378;2024-02-16T08:45:35;92765.53;;;9.80;68.64
52249;BME280;38541;48.130;8.378;2024-02-16T08:48:02;92762.41;;;9.88;68.89
52249;BME280;38541;48.130;8.378;2024-02-16T08:50:30;92769.28;;;9.99;68.53
52249;BME280;38541;48.130;8.378;2024-02-16T08:52:57;92767.22;;;10.12;68.44
52249;BME280;38541;48.130;8.378;2024-02-16T08:55:23;92763.06;;;10.16;68.29
52249;BME280;38541;48.130;8.378;2024-02-16T08:57:50;92767.25;;;10.22;68.16
52249;BME280;38541;48.130;8.378;2024-02-16T09:00:16;92759.38;;;10.27;68.86
52249;BME280;38541;48.130;8.378;2024-02-16T09:02:43;92770.41;;;10.30;69.26
52249;BME280;38541;48.130;8.378;2024-02-16T09:05:11;92768.88;;;10.34;69.06
52249;BME280;38541;48.130;8.378;2024-02-16T09:07:38;92781.19;;;10.38;68.86
52249;BME280;38541;48.130;8.378;2024-02-16T09:10:05;92795.69;;;10.41;69.33
52249;BME280;38541;48.130;8.378;2024-02-16T09:12:31;92789.34;;;10.37;69.64
52249;BME280;38541;48.130;8.378;2024-02-16T09:14:58;92784.13;;;10.42;68.79
52249;BME280;38541;48.130;8.378;2024-02-16T09:17:25;92787.31;;;10.54;68.50
52249;BME280;38541;48.130;8.378;2024-02-16T09:19:52;92787.31;;;10.70;68.60
52249;BME280;38541;48.130;8.378;2024-02-16T09:22:19;92798.66;;;10.81;68.25
52249;BME280;38541;48.130;8.378;2024-02-16T09:24:45;92797.88;;;10.91;68.19
52249;BME280;38541;48.130;8.378;2024-02-16T09:27:13;92798.16;;;10.99;68.36
52249;BME280;38541;48.130;8.378;2024-02-16T09:29:40;92799.72;;;11.11;68.25
52249;BME280;38541;48.130;8.378;2024-02-16T09:32:06;92799.69;;;11.26;68.03
52249;BME280;38541;48.130;8.378;2024-02-16T09:34:33;92800.47;;;11.42;67.27
52249;BME280;38541;48.130;8.378;2024-02-16T09:37:01;92805.72;;;11.58;66.59
52249;BME280;38541;48.130;8.378;2024-02-16T09:39:27;92809.63;;;11.71;66.42
52249;BME280;38541;48.130;8.378;2024-02-16T09:41:54;92810.38;;;11.92;66.33
52249;BME280;38541;48.130;8.378;2024-02-16T09:44:23;92813.53;;;12.05;65.80
52249;BME280;38541;48.130;8.378;2024-02-16T09:46:53;92822.94;;;12.16;66.08
52249;BME280;38541;48.130;8.378;2024-02-16T09:49:20;92814.47;;;12.30;65.82
52249;BME280;38541;48.130;8.378;2024-02-16T09:52:02;92818.09;;;12.44;65.71
52249;BME280;38541;48.130;8.378;2024-02-16T09:54:32;92824.31;;;12.59;65.07
52249;BME280;38541;48.130;8.378;2024-02-16T09:57:00;92822.97;;;12.66;63.94
52249;BME280;38541;48.130;8.378;2024-02-16T09:59:27;92823.44;;;12.79;60.96
52249;BME280;38541;48.130;8.378;2024-02-16T10:02:03;92827.81;;;12.94;59.96
52249;BME280;38541;48.130;8.378;2024-02-16T10:04:30;92829.34;;;13.05;59.31
52249;BME280;38541;48.130;8.378;2024-02-16T10:07:02;92831.38;;;13.13;58.56
52249;BME280;38541;48.130;8.378;2024-02-16T10:09:34;92833.44;;;13.17;57.84
52249;BME280;38541;48.130;8.378;2024-02-16T10:12:01;92840.75;;;13.30;56.90
52249;BME280;38541;48.130;8.378;2024-02-16T10:14:28;92841.72;;;13.45;56.69
52249;BME280;38541;48.130;8.378;2024-02-16T10:17:02;92851.66;;;13.58;56.10
52249;BME280;38541;48.130;8.378;2024-02-16T10:19:30;92853.72;;;13.61;55.17
52249;BME280;38541;48.130;8.378;2024-02-16T10:22:06;92864.16;;;13.77;54.97
52249;BME280;38541;48.130;8.378;2024-02-16T10:24:33;92858.16;;;13.95;54.18
52249;BME280;38541;48.130;8.378;2024-02-16T10:27:00;92853.22;;;14.13;53.13
52249;BME280;38541;48.130;8.378;2024-02-16T10:29:27;92855.84;;;14.37;53.24
52249;BME280;38541;48.130;8.378;2024-02-16T10:31:54;92858.13;;;14.68;52.81
52249;BME280;38541;48.130;8.378;2024-02-16T10:34:24;92860.75;;;14.93;52.25
52249;BME280;38541;48.130;8.378;2024-02-16T10:36:51;92858.03;;;14.79;51.91
52249;BME280;38541;48.130;8.378;2024-02-16T10:39:18;92867.25;;;14.81;51.53
52249;BME280;38541;48.130;8.378;2024-02-16T10:41:46;92864.53;;;14.87;50.54
52249;BME280;38541;48.130;8.378;2024-02-16T10:44:13;92858.16;;;15.07;50.85
52249;BME280;38541;48.130;8.378;2024-02-16T10:46:39;92860.28;;;15.24;50.26
52249;BME280;38541;48.130;8.378;2024-02-16T10:49:06;92867.16;;;15.25;49.92
52249;BME280;38541;48.130;8.378;2024-02-16T10:51:40;92856.28;;;15.46;50.06
52249;BME280;38541;48.130;8.378;2024-02-16T10:54:09;92867.34;;;15.81;50.02
52249;BME280;38541;48.130;8.378;2024-02-16T10:56:37;92864.06;;;15.89;49.28
52249;BME280;38541;48.130;8.378;2024-02-16T10:59:06;92869.69;;;15.68;49.88
52249;BME280;38541;48.130;8.378;2024-02-16T11:01:37;92858.78;;;15.89;50.10
52249;BME280;38541;48.130;8.378;2024-02-16T11:04:08;92873.66;;;15.85;50.25
52249;BME280;38541;48.130;8.378;2024-02-16T11:06:46;92860.25;;;15.95;50.03
52249;BME280;38541;48.130;8.378;2024-02-16T11:09:23;92859.97;;;16.11;48.47
52249;BME280;38541;48.130;8.378;2024-02-16T11:11:59;92852.94;;;15.87;49.70
52249;BME280;38541;48.130;8.378;2024-02-16T11:14:43;92853.81;;;15.82;50.02
52249;BME280;38541;48.130;8.378;2024-02-16T11:17:23;92868.50;;;15.75;50.43
52249;BME280;38541;48.130;8.378;2024-02-16T11:19:50;92857.44;;;15.73;49.72
52249;BME280;38541;48.130;8.378;2024-02-16T11:22:18;92857.69;;;15.71;50.66
52249;BME280;38541;48.130;8.378;2024-02-16T11:24:47;92869.72;;;15.82;49.00
52249;BME280;38541;48.130;8.378;2024-02-16T11:27:15;92862.56;;;15.83;49.62
52249;BME280;38541;48.130;8.378;2024-02-16T11:29:46;92857.81;;;15.80;49.66
52249;BME280;38541;48.130;8.378;2024-02-16T11:32:12;92863.38;;;15.97;48.68
52249;BME280;38541;48.130;8.378;2024-02-16T11:34:39;92857.59;;;16.09;49.22
52249;BME280;38541;48.130;8.378;2024-02-16T11:37:06;92869.09;;;16.33;49.08
52249;BME280;38541;48.130;8.378;2024-02-16T11:39:33;92855.47;;;16.11;48.81
52249;BME280;38541;48.130;8.378;2024-02-16T11:42:06;92859.28;;;16.05;49.75
52249;BME280;38541;48.130;8.378;2024-02-16T11:44:35;92858.72;;;16.22;49.33
52249;BME280;38541;48.130;8.378;2024-02-16T11:47:03;92864.09;;;16.17;48.54
52249;BME280;38541;48.130;8.378;2024-02-16T11:49:30;92856.44;;;16.30;48.80
52249;BME280;38541;48.130;8.378;2024-02-16T11:51:59;92857.91;;;16.36;48.67
52249;BME280;38541;48.130;8.378;2024-02-16T11:54:26;92854.22;;;16.88;47.35
52249;BME280;38541;48.130;8.378;2024-02-16T11:56:53;92857.75;;;16.97;47.14
52249;BME280;38541;48.130;8.378;2024-02-16T11:59:19;92856.41;;;17.22;46.13
52249;BME280;38541;48.130;8.378;2024-02-16T12:01:57;92858.19;;;17.27;46.11
52249;BME280;38541;48.130;8.378;2024-02-16T12:04:25;92864.50;;;17.17;45.63
52249;BME280;38541;48.130;8.378;2024-02-16T12:07:00;92859.75;;;16.77;46.26
52249;BME280;38541;48.130;8.378;2024-02-16T12:09:31;92864.66;;;16.70;46.73
52249;BME280;38541;48.130;8.378;2024-02-16T12:12:01;92865.94;;;16.73;46.97
52249;BME280;38541;48.130;8.378;2024-02-16T12:14:29;92857.09;;;16.77;46.72
52249;BME280;38541;48.130;8.378;2024-02-16T12:16:56;92874.91;;;16.49;47.73
52249;BME280;38541;48.130;8.378;2024-02-16T12:19:23;92870.38;;;16.49;47.76
52249;BME280;38541;48.130;8.378;2024-02-16T12:21:57;92881.59;;;16.46;47.16
52249;BME280;38541;48.130;8.378;2024-02-16T12:24:24;92875.50;;;16.32;48.50
52249;BME280;38541;48.130;8.378;2024-02-16T12:26:51;92886.41;;;16.30;48.65
52249;BME280;38541;48.130;8.378;2024-02-16T12:29:18;92879.59;;;16.24;48.63
52249;BME280;38541;48.130;8.378;2024-02-16T12:31:45;92884.13;;;16.23;48.76
52249;BME280;38541;48.130;8.378;2024-02-16T12:34:14;92888.03;;;16.12;48.41
52249;BME280;38541;48.130;8.378;2024-02-16T12:36:41;92890.81;;;16.21;49.27
52249;BME280;38541;48.130;8.378;2024-02-16T12:39:13;92893.19;;;16.50;48.91
52249;BME280;38541;48.130;8.378;2024-02-16T12:41:42;92883.75;;;16.44;49.12
52249;BME280;38541;48.130;8.378;2024-02-16T12:44:10;92888.25;;;16.44;48.95
52249;BME280;38541;48.130;8.378;2024-02-16T12:46:37;92888.75;;;16.74;49.05
52249;BME280;38541;48.130;8.378;2024-02-16T12:49:05;92886.19;;;16.82;48.44
52249;BME280;38541;48.130;8.378;2024-02-16T12:51:32;92890.41;;;16.83;48.26
52249;BME280;38541;48.130;8.378;2024-02-16T12:53:58;92892.28;;;16.69;47.68
52249;BME280;38541;48.130;8.378;2024-02-16T12:56:26;92899.25;;;16.65;48.31
52249;BME280;38541;48.130;8.378;2024-02-16T12:58:53;92900.63;;;16.34;49.39
52249;BME280;38541;48.130;8.378;2024-02-16T13:01:19;92898.47;;;16.22;48.86
52249;BME280;38541;48.130;8.378;2024-02-16T13:03:52;92898.84;;;16.02;49.24
52249;BME280;38541;48.130;8.378;2024-02-16T13:06:18;92897.75;;;16.03;49.25
52249;BME280;38541;48.130;8.378;2024-02-16T13:08:50;92896.09;;;16.07;49.84